Terminal Aerodrome Forecast
Issued by NWS

Home | Current Version | Previous Version | Text Only | Print | Product List | Glossary Off
Versions: 1 2 3 4 5 6 7 8 9 10 11 12 13 14 15 16 17 18 19

000
FTUS43 KGRB 161700 RRA
TAFCWA
TAF
KCWA 161745Z 1618/1718 34013G20KT 3SM -SN BR BKN012 OVC025
      TEMPO 1618/1622 2SM -SN
     FM162200 31012KT P6SM -SN SCT012 OVC024
      TEMPO 1622/1702 5SM -SN BKN012
     FM171500 30010G17KT P6SM SCT015 OVC028=

USA.gov is the U.S. government's official web portal to all federal, state and local government web resources and services.